« Back
NWS Peachtree City, Ga » Text Product » MCN Terminal Aerodrome Forecast


Printer-friendly Version
Current Version              Previous Versions:   1  2  3  4  5  6  7  8  9  

Terminal Aerodrome Forecast

376
FTUS42 KFFC 032328
TAFMCN
TAF
KMCN 032328Z 0400/0424 30010G16KT P6SM BKN070
     FM040200 30006KT P6SM SCT070
     FM041400 31010G18KT P6SM SCT045
     FM042000 30012G20KT P6SM BKN070=



USA.gov is the U.S. government's official web portal to all federal, state and local government web resources and services.